Pagrindinis puslapis
METAR-TAF:

METAR-TAF

Oro uostai :

Maskatas, Omanas

platuma: 23-35N, ilguma: 058-17E, Aukštis: 8 m

Dabartinis oras

Ataskaita buvo paskelbta 1 valandą ir 0 minutes, ne 13:50 UTC
Vėjas 5 kt iš Šiaurės Rytų, svyruoja nuo Šiaurės/Šiaurės Rytų ir Rytų
Temperatūra 32°C
Drėgmė 79%
Slėgis 996 hPa
Matomumas 10 km arba daugiau
Mažai debesys ne aukštis 3000 ft

METAR: OOMS 181350Z 05005KT 030V090 9999 FEW030 32/28 Q0996 NOSIG

Laikas: 18:50 (14:50 UTC)

Prognozė

Ataskaita buvo paskelbta 3 valandos ir 50 minutes, ne 11:00 UTC
Prognozė galioja nuo 18 metu 12 UTC su 19 metu 18 UTC
Vėjas 12 kt iš Šiaurės Rytų
Matomumas: 8000 m
Mažai debesys ne aukštis 3000 ft
Tapsmas
nuo 18 metu 15 UTC su 18 metu 17 UTC
Vėjas 2 kt nuo kintamojo kryptimis
Tapsmas
nuo 19 metu 06 UTC su 19 metu 08 UTC
Vėjas 12 kt iš Šiaurės Rytų
Tapsmas
nuo 19 metu 15 UTC su 19 metu 17 UTC
Vėjas 2 kt nuo kintamojo kryptimis

TAF: OOMS 181100Z 1812/1918 04012KT 8000 FEW030 BECMG 1815/1817 VRB02KT BECMG 1906/1908 04012KT BECMG 1915/1917 VRB02KT

Orai ataskaitas ir orų prognozės (METAR, TAF).

turimą stotys yra geltonos ir raudonos taškus žemėlapyje.

Perkelti pele per norėdami pamatyti stoties vardą.

Tada spustelėkite, norėdami matyti oro stebėjimo ir prognozės.

Norėdami pakeisti žemėlapį: spustelėkite ant žalios mygtukų su juodo kryžiaus žemyn,; žalią mygtuką su brūkšneliu, jei norite nutolinti; arba žalių rodyklių gretimoms žemėlapius.


METAR-TAF: